Fort Loramie, Ohio
Current Conditions -  °F | °C
As of 7:11 AM on Thursday 29 Jan 2015 (Local Time) from KAXV Reporting Station
Overcast Overcast  
Wind Chill: 25°   Ceiling: 9000
Heat Index: 36°   Visibility: 10mi
Dew Point: 30°   Wind: 18mph
Humidity: 81%   Direction: 180°S
Pressure: 29.81"   Gusts: 23mph
Location:  40.35°N, 84.37°W
Report Text: KAXV 291211Z AUTO 18016G20KT 10SM OVC090 02/M01 A2981 RMK AO2
Loading
Personal Weather Stations






























Interactive Weather Map New forecast layout! Learn more

10-Day Weather Forecast

Advertisements
Track Severe Weather on mobile